プノンペン の空港の天気 - METARとTAF

プノンペン国際空港 ( VDPP / PNH ) - カンボジア プノンペン
飛行場実況気象(Metar)
観測時間10/01 22:00 ICT (10/01 15:00 UTC)
風向・風速不定 1m/s
視程9000m
天気現象
全天の4割程度の雲 雲底高度 520m
全天の4割程度の雲 雲底高度 1220m
気温27℃
湿度94%
気圧1006hPa
METARVDPP 011500Z VRB02KT 9000 SCT017 SCT040 27/26 Q1006
過去の天気等 Google飛行場航空写真 Wunderground天気予報

過去48時間のMETAR

飛行場予報(TAF)
発表時間: 10/01 18:00 ICT (10/01 11:00 UTC)
予報対象時間: 1日19時 ICT ~ 2日13時 ICT
風向・風速西北西 4m/s
視程10km以上
全天の4割程度の雲 雲底高度 520m
全天の4割程度の雲 雲底高度 1220m
1日19時 ICT ~ 1日24時 ICT に一時的に
視程5000m
天気現象雷雨
全天の4割程度の雲 雲底高度 460m
少しの積乱雲 雲底高度 520m
全天の8割程度の雲 雲底高度 1220m
TAF VDPP 011100Z 0112/0206 29008KT 9999 SCT017 SCT040
TEMPO 0112/0117 5000 TSRA SCT015 FEW017CB BKN040